Terminal Aerodrome Forecast
Issued by NWS

Home | Current Version | Previous Version | Graphics & Text | Print | Product List | Glossary On
Versions: 1 2 3 4 5 6 7 8 9 10 11 12 13 14 15 16
000
FTUS43 KMPX 272300
TAFAXN
TAF
KAXN 272332Z 2800/2824 29009KT P6SM OVC050
     FM280500 27011KT P6SM BKN100
     FM281200 30017G25KT P6SM BKN015 OVC040=

USA.gov is the U.S. government's official web portal to all federal, state and local government web resources and services.